Time;durP1;ratioP1;P1;durP2;ratioP2;P2;SDS_P1;SDS_P2;PMS_P1;PMS_P2;Temp;Humidity;BMP_temperature;BMP_pressure;BME280_temperature;BME280_humidity;BME280_pressure;Samples;Min_cycle;Max_cycle;Signal;HPM_P1;HPM_P2
2022/03/29 00:00:57;;;;;;;21.15;9.48;;;;;;;6.19;100.00;97922.72;5109518;28;20043;-64
2022/03/29 00:03:23;;;;;;;23.27;9.48;;;;;;;6.17;100.00;97928.53;5110286;28;20520;-65
2022/03/29 00:05:49;;;;;;;22.48;9.20;;;;;;;6.19;100.00;97939.06;5110798;28;20052;-65
2022/03/29 00:08:16;;;;;;;22.95;10.60;;;;;;;6.15;100.00;97949.09;5110174;28;20059;-65
2022/03/29 00:10:42;;;;;;;22.42;9.10;;;;;;;6.17;100.00;97958.47;5110576;28;20429;-64
2022/03/29 00:13:08;;;;;;;32.58;12.38;;;;;;;6.16;100.00;97967.00;5110319;28;20059;-65
2022/03/29 00:22:19;;;;;;;18.45;9.13;;;;;;;6.01;100.00;97982.31;5110199;28;20127;-65
2022/03/29 00:24:45;;;;;;;24.27;8.85;;;;;;;5.84;100.00;97978.91;5109995;28;20052;-65
2022/03/29 00:27:11;;;;;;;18.05;8.95;;;;;;;5.72;100.00;97998.09;5110193;28;20050;-65
2022/03/29 00:29:38;;;;;;;22.55;9.43;;;;;;;5.63;100.00;98027.44;5110147;28;20456;-65
2022/03/29 00:32:05;;;;;;;20.23;9.35;;;;;;;5.63;100.00;98049.19;5109916;28;20421;-65
2022/03/29 00:34:31;;;;;;;23.73;10.40;;;;;;;5.61;100.00;98048.78;5109979;28;20077;-65
2022/03/29 00:36:57;;;;;;;19.02;9.65;;;;;;;5.45;100.00;98050.78;5110371;28;20047;-64
2022/03/29 00:39:24;;;;;;;19.75;9.02;;;;;;;5.31;100.00;98065.66;5109765;28;20529;-64
2022/03/29 00:41:50;;;;;;;18.48;9.05;;;;;;;5.19;100.00;98063.84;5109900;28;20097;-65
2022/03/29 00:44:17;;;;;;;24.17;9.50;;;;;;;5.12;100.00;98079.22;5109746;28;20108;-64
2022/03/29 00:46:43;;;;;;;22.85;9.43;;;;;;;5.02;100.00;98096.84;5110026;28;20097;-65
2022/03/29 00:49:10;;;;;;;24.58;10.10;;;;;;;4.95;100.00;98115.69;5109881;28;20100;-64
2022/03/29 00:51:37;;;;;;;23.40;9.35;;;;;;;4.88;100.00;98115.53;5109737;28;20105;-65
2022/03/29 00:54:04;;;;;;;18.58;9.50;;;;;;;4.79;100.00;98110.28;5109811;28;20055;-64
2022/03/29 00:56:31;;;;;;;17.70;9.20;;;;;;;4.74;100.00;98115.22;5109411;28;20048;-64
2022/03/29 00:58:57;;;;;;;21.88;9.57;;;;;;;4.67;100.00;98122.03;5109836;28;20053;-65
2022/03/29 01:01:24;;;;;;;23.10;9.63;;;;;;;4.67;100.00;98132.91;5109383;28;20569;-65
2022/03/29 01:03:50;;;;;;;25.13;10.45;;;;;;;4.60;100.00;98135.44;5110026;28;20051;-65
2022/03/29 01:06:16;;;;;;;27.33;10.43;;;;;;;4.61;100.00;98141.66;5109415;28;20054;-65
2022/03/29 01:08:44;;;;;;;21.83;9.27;;;;;;;4.64;100.00;98135.53;5109832;28;20051;-65
2022/03/29 01:11:12;;;;;;;20.38;9.60;;;;;;;4.58;100.00;98137.72;5111015;28;20059;-65
2022/03/29 01:13:39;;;;;;;17.25;8.60;;;;;;;4.62;100.00;98127.72;5113218;28;20043;-65
2022/03/29 01:18:48;;;;;;;28.50;9.68;;;;;;;4.62;100.00;98127.72;5111506;28;20106;-65
2022/03/29 01:21:16;;;;;;;18.70;9.32;;;;;;;4.65;100.00;98123.53;5113307;28;20170;-65
2022/03/29 01:23:44;;;;;;;18.65;8.80;;;;;;;4.54;100.00;98127.91;5112842;28;20051;-65
2022/03/29 01:26:11;;;;;;;21.77;8.05;;;;;;;4.53;100.00;98132.53;5113396;28;20555;-65
2022/03/29 01:28:38;;;;;;;20.65;9.82;;;;;;;4.49;100.00;98137.88;5112918;28;20051;-65
2022/03/29 01:31:05;;;;;;;15.82;9.07;;;;;;;4.51;100.00;98128.59;5113249;28;20457;-65
2022/03/29 01:33:32;;;;;;;18.48;10.27;;;;;;;4.45;100.00;98131.56;5112615;28;20043;-65
2022/03/29 01:35:59;;;;;;;20.92;8.80;;;;;;;4.41;100.00;98128.00;5113091;28;20143;-64
2022/03/29 01:38:26;;;;;;;23.48;9.82;;;;;;;4.44;100.00;98132.72;5112524;28;20502;-65
2022/03/29 01:41:00;;;;;;;16.92;9.27;;;;;;;4.35;100.00;98129.38;5112502;28;20058;-65
2022/03/29 01:43:26;;;;;;;;;;;;;;;4.35;100.00;98131.31;5113257;28;20051;-65
2022/03/29 01:45:52;;;;;;;19.50;8.82;;;;;;;4.25;100.00;98117.09;5112346;28;20386;-65
2022/03/29 01:48:19;;;;;;;24.23;9.35;;;;;;;4.22;100.00;98117.03;5112678;28;20048;-65
2022/03/29 01:50:46;;;;;;;23.90;9.38;;;;;;;4.24;100.00;98115.53;5112292;28;20048;-65
2022/03/29 01:53:21;;;;;;;21.63;9.35;;;;;;;4.13;100.00;98111.78;5112409;28;20052;-65
2022/03/29 01:55:48;;;;;;;19.55;9.57;;;;;;;4.06;100.00;98108.06;5112267;28;20104;-65
2022/03/29 01:58:15;;;;;;;28.48;10.15;;;;;;;4.04;100.00;98102.22;5112680;28;20054;-65
2022/03/29 02:00:42;;;;;;;19.40;9.57;;;;;;;4.03;100.00;98087.06;5112175;28;20063;-64
2022/03/29 02:03:09;;;;;;;15.80;8.70;;;;;;;4.04;100.00;98096.78;5112438;28;20052;-65
2022/03/29 02:05:35;;;;;;;23.25;9.95;;;;;;;3.93;100.00;98091.06;5112161;28;20081;-65
2022/03/29 02:08:03;;;;;;;23.05;10.07;;;;;;;3.92;100.00;98093.00;5112317;28;20138;-65
2022/03/29 02:10:29;;;;;;;19.30;10.73;;;;;;;3.93;100.00;98085.63;5112146;28;20051;-64
2022/03/29 02:12:56;;;;;;;21.38;10.10;;;;;;;3.97;100.00;98071.06;5112083;28;20121;-64
2022/03/29 02:15:23;;;;;;;23.00;10.13;;;;;;;4.06;100.00;98076.31;5112204;28;20405;-64
2022/03/29 02:17:50;;;;;;;19.77;10.35;;;;;;;4.05;100.00;98077.44;5112092;28;20172;-64
2022/03/29 02:20:17;;;;;;;25.17;9.80;;;;;;;4.04;100.00;98083.22;5111365;28;20513;-64
2022/03/29 02:22:44;;;;;;;29.95;9.60;;;;;;;4.04;100.00;98078.59;5111384;28;20052;-65
2022/03/29 02:25:11;;;;;;;25.38;10.27;;;;;;;4.04;100.00;98077.81;5111938;28;20047;-65
2022/03/29 02:27:38;;;;;;;25.20;11.10;;;;;;;4.07;100.00;98071.69;5111680;28;20043;-65
2022/03/29 02:30:05;;;;;;;29.70;11.30;;;;;;;4.12;100.00;98066.00;5112199;28;20043;-65
2022/03/29 02:32:32;;;;;;;21.95;10.98;;;;;;;4.24;100.00;98063.22;5111894;28;20061;-65
2022/03/29 02:34:59;;;;;;;21.05;10.27;;;;;;;4.30;100.00;98072.66;5112014;28;20051;-65
2022/03/29 02:37:25;;;;;;;30.08;12.35;;;;;;;4.23;100.00;98083.31;5112103;28;20473;-64
2022/03/29 02:39:52;;;;;;;23.58;11.30;;;;;;;4.22;100.00;98076.31;5111632;28;20501;-65
2022/03/29 02:42:18;;;;;;;20.10;10.85;;;;;;;4.09;100.00;98083.75;5111492;28;20062;-65
2022/03/29 02:44:44;;;;;;;22.83;10.65;;;;;;;4.10;100.00;98069.06;5111610;28;20509;-65
2022/03/29 02:47:11;;;;;;;22.85;11.77;;;;;;;3.99;100.00;98068.78;5111907;28;20134;-65
2022/03/29 02:49:37;;;;;;;20.48;11.05;;;;;;;3.99;100.00;98070.69;5111567;28;20047;-65
2022/03/29 02:52:05;;;;;;;22.92;12.55;;;;;;;4.13;100.00;98070.28;5111461;28;20054;-65
2022/03/29 02:54:31;;;;;;;24.05;11.60;;;;;;;4.28;100.00;98066.00;5111469;28;20065;-65
2022/03/29 02:56:57;;;;;;;26.38;11.10;;;;;;;4.45;100.00;98068.38;5111842;28;20100;-64
2022/03/29 02:59:24;;;;;;;24.50;11.75;;;;;;;4.61;100.00;98079.22;5111800;28;20051;-65
2022/03/29 03:01:50;;;;;;;24.77;12.00;;;;;;;4.72;100.00;98072.88;5111319;28;20054;-65
2022/03/29 03:04:16;;;;;;;23.08;12.70;;;;;;;4.88;100.00;98091.09;5111511;28;20047;-64
2022/03/29 03:06:43;;;;;;;26.33;11.43;;;;;;;4.98;100.00;98112.28;5111246;28;20064;-65
2022/03/29 03:09:09;;;;;;;31.45;11.82;;;;;;;5.10;100.00;98124.97;5111523;28;20051;-64
2022/03/29 03:11:36;;;;;;;24.35;11.52;;;;;;;5.17;100.00;98136.00;5111273;28;20051;-65
2022/03/29 03:14:02;;;;;;;27.15;12.23;;;;;;;5.23;100.00;98150.91;5111300;28;20430;-65
2022/03/29 03:16:29;;;;;;;33.03;12.18;;;;;;;5.26;100.00;98143.94;5111466;28;20117;-65
2022/03/29 03:18:55;;;;;;;22.77;10.95;;;;;;;5.31;100.00;98154.56;5110706;28;20054;-65
2022/03/29 03:21:22;;;;;;;29.13;12.50;;;;;;;5.33;100.00;98155.78;5111210;28;20044;-65
2022/03/29 03:23:49;;;;;;;28.08;11.55;;;;;;;5.28;100.00;98147.09;5111459;28;20138;-64
2022/03/29 03:26:15;;;;;;;26.67;11.68;;;;;;;5.33;100.00;98144.91;5111024;28;20055;-64
2022/03/29 03:28:41;;;;;;;21.45;10.35;;;;;;;5.38;100.00;98141.91;5111044;28;20051;-65
2022/03/29 03:31:07;;;;;;;21.38;11.52;;;;;;;5.38;100.00;98147.34;5110961;28;20052;-64
2022/03/29 03:33:34;;;;;;;25.58;11.13;;;;;;;5.39;100.00;98143.47;5110499;28;20051;-64
2022/03/29 03:36:00;;;;;;;30.52;11.25;;;;;;;5.36;100.00;98146.09;5110437;28;20050;-64
2022/03/29 03:38:26;;;;;;;22.83;11.38;;;;;;;5.38;100.00;98143.84;5110932;28;20162;-64
2022/03/29 03:40:53;;;;;;;25.85;11.15;;;;;;;5.43;100.00;98136.19;5110978;28;20054;-64
2022/03/29 03:43:19;;;;;;;19.27;10.40;;;;;;;5.47;100.00;98132.78;5111033;28;20858;-65
2022/03/29 03:45:47;;;;;;;22.73;9.88;;;;;;;5.51;100.00;98120.81;5111320;28;20052;-65
2022/03/29 03:48:13;;;;;;;20.75;9.70;;;;;;;5.50;100.00;98113.81;5110915;28;20049;-65
2022/03/29 03:50:39;;;;;;;21.77;10.77;;;;;;;5.53;100.00;98093.25;5110920;28;20055;-65
2022/03/29 03:53:05;;;;;;;22.40;9.90;;;;;;;5.55;100.00;98080.91;5110736;28;20502;-65
2022/03/29 03:55:32;;;;;;;19.55;9.85;;;;;;;5.53;100.00;98061.44;5110983;27;20069;-64
2022/03/29 03:57:58;;;;;;;24.05;9.82;;;;;;;5.62;100.00;98050.34;5110536;28;20054;-65
2022/03/29 04:00:25;;;;;;;19.48;9.15;;;;;;;5.54;100.00;98035.84;5110338;28;20047;-64
2022/03/29 04:02:53;;;;;;;17.27;8.88;;;;;;;5.56;100.00;98024.59;5110601;28;20052;-64
2022/03/29 04:05:21;;;;;;;19.20;8.77;;;;;;;5.57;100.00;98018.81;5110426;28;20162;-65
2022/03/29 04:07:47;;;;;;;28.98;13.30;;;;;;;5.58;100.00;98000.56;5110572;27;20147;-65
2022/03/29 04:10:14;;;;;;;17.83;9.57;;;;;;;5.59;100.00;97994.75;5110286;28;20043;-65
2022/03/29 04:12:40;;;;;;;17.25;8.88;;;;;;;5.58;100.00;97989.69;5110651;27;20051;-64
2022/03/29 04:15:08;;;;;;;19.45;7.97;;;;;;;5.59;100.00;97988.53;5110269;28;20055;-65
2022/03/29 04:17:35;;;;;;;17.83;8.32;;;;;;;5.60;100.00;97974.59;5110201;28;20051;-65
2022/03/29 04:20:01;;;;;;;17.33;7.80;;;;;;;5.64;100.00;97953.69;5109575;28;20460;-65
2022/03/29 04:22:27;;;;;;;18.95;8.15;;;;;;;5.72;100.00;97937.47;5110457;28;20051;-65
2022/03/29 04:24:54;;;;;;;14.82;8.15;;;;;;;5.76;100.00;97922.78;5109998;28;20434;-65
2022/03/29 04:27:20;;;;;;;18.73;8.15;;;;;;;5.80;100.00;97915.50;5109852;28;20067;-65
2022/03/29 04:29:46;;;;;;;18.58;7.82;;;;;;;5.82;100.00;97894.16;5109940;28;20053;-65
2022/03/29 04:32:13;;;;;;;14.63;8.05;;;;;;;5.87;100.00;97879.47;5110066;28;20425;-65
2022/03/29 04:34:40;;;;;;;25.45;9.27;;;;;;;5.89;100.00;97877.16;5110317;27;20541;-65
2022/03/29 04:37:06;;;;;;;17.48;8.50;;;;;;;5.92;100.00;97875.66;5109826;28;20047;-65
2022/03/29 04:39:32;;;;;;;17.85;8.68;;;;;;;5.97;100.00;97872.66;5110218;28;20055;-65
2022/03/29 04:41:58;;;;;;;16.15;8.23;;;;;;;5.97;100.00;97861.78;5109671;28;20104;-65
2022/03/29 04:44:25;;;;;;;21.25;9.27;;;;;;;5.98;100.00;97866.06;5110328;27;20396;-65
2022/03/29 04:46:51;;;;;;;18.33;9.45;;;;;;;5.98;100.00;97858.69;5112442;28;20057;-65
2022/03/29 04:49:18;;;;;;;17.58;8.40;;;;;;;6.04;100.00;97849.06;5113590;28;20112;-65
2022/03/29 04:51:44;;;;;;;18.08;9.02;;;;;;;6.07;100.00;97851.03;5113386;28;20055;-65
2022/03/29 04:54:10;;;;;;;17.52;8.23;;;;;;;6.02;100.00;97832.31;5113677;27;20047;-65
2022/03/29 04:56:37;;;;;;;20.88;9.68;;;;;;;6.06;100.00;97838.56;5113632;28;20051;-65
2022/03/29 04:59:05;;;;;;;20.55;9.80;;;;;;;6.14;100.00;97834.03;5113242;28;20522;-65
2022/03/29 05:01:31;;;;;;;19.60;9.70;;;;;;;6.15;100.00;97824.72;5113220;28;20108;-65
2022/03/29 05:03:57;;;;;;;14.38;8.55;;;;;;;6.18;100.00;97813.09;5112936;28;20047;-65
2022/03/29 05:06:24;;;;;;;18.33;9.45;;;;;;;6.22;100.00;97805.75;5113117;27;20047;-64
2022/03/29 05:08:50;;;;;;;20.20;8.68;;;;;;;6.25;100.00;97798.78;5118410;27;20528;-65
2022/03/29 05:11:16;;;;;;;16.55;8.30;;;;;;;6.32;100.00;97780.59;5114560;28;20052;-60
2022/03/29 05:13:43;;;;;;;22.10;8.73;;;;;;;6.46;100.00;97746.53;5123569;28;20138;-57
2022/03/29 05:16:09;;;;;;;19.35;8.55;;;;;;;6.56;100.00;97733.06;5120918;28;20058;-61
2022/03/29 05:18:35;;;;;;;15.07;7.63;;;;;;;6.64;100.00;97697.75;5122172;28;20155;-65
2022/03/29 05:21:01;;;;;;;19.23;9.20;;;;;;;6.71;100.00;97665.13;5112803;28;20074;-61
2022/03/29 05:23:28;;;;;;;16.17;8.23;;;;;;;6.80;100.00;97635.63;5112580;28;20054;-57
2022/03/29 05:25:54;;;;;;;18.33;9.00;;;;;;;6.89;100.00;97624.41;5112843;28;20459;-58
2022/03/29 05:28:21;;;;;;;23.60;9.13;;;;;;;6.95;100.00;97590.22;5114269;28;20047;-60
2022/03/29 05:30:49;;;;;;;27.63;9.15;;;;;;;7.03;100.00;97559.09;5133101;28;20051;-59
2022/03/29 05:33:17;;;;;;;16.13;8.85;;;;;;;7.02;100.00;97536.53;5126106;28;20047;-62
2022/03/29 05:35:45;;;;;;;22.15;10.68;;;;;;;7.06;100.00;97525.66;5117628;28;20044;-60
2022/03/29 05:38:12;;;;;;;21.60;8.73;;;;;;;7.13;100.00;97528.44;5127970;27;20043;-60
2022/03/29 05:40:39;;;;;;;17.67;8.50;;;;;;;7.20;100.00;97512.13;5146502;27;20051;-61
2022/03/29 05:43:09;;;;;;;26.92;9.68;;;;;;;7.19;100.00;97482.50;5112671;28;20462;-61
2022/03/29 05:45:35;;;;;;;22.88;8.85;;;;;;;7.20;100.00;97493.03;5127981;27;20043;-60
2022/03/29 05:50:46;;;;;;;23.30;9.93;;;;;;;7.28;100.00;97464.63;5126334;28;20092;-61
2022/03/29 05:53:12;;;;;;;37.83;11.07;;;;;;;7.27;100.00;97435.06;5132925;27;20054;-62
2022/03/29 05:55:40;;;;;;;117.90;39.13;;;;;;;7.34;100.00;97402.34;5133067;28;20856;-61
2022/03/29 05:58:06;;;;;;;25.13;8.95;;;;;;;7.29;100.00;97370.00;5130641;27;20502;-63
2022/03/29 06:00:32;;;;;;;37.80;14.68;;;;;;;7.31;100.00;97340.44;5128389;28;20050;-63
2022/03/29 06:02:58;;;;;;;18.75;8.23;;;;;;;7.43;100.00;97317.44;5132364;27;20832;-63
2022/03/29 06:05:26;;;;;;;140.90;39.38;;;;;;;7.50;100.00;97288.25;5126745;28;20088;-61
2022/03/29 06:07:52;;;;;;;28.85;11.80;;;;;;;7.58;100.00;97266.44;5117863;28;20049;-61
2022/03/29 06:10:19;;;;;;;25.35;10.55;;;;;;;7.67;100.00;97245.00;5122734;27;20514;-62
2022/03/29 06:12:46;;;;;;;28.20;8.50;;;;;;;7.59;100.00;97229.81;5121513;28;20130;-61
2022/03/29 06:15:15;;;;;;;18.38;8.70;;;;;;;7.59;100.00;97254.34;5132266;28;20057;-60
2022/03/29 06:17:41;;;;;;;19.38;9.80;;;;;;;7.49;100.00;97253.97;5130900;28;20051;-61
2022/03/29 06:20:10;;;;;;;32.95;10.88;;;;;;;7.44;100.00;97278.13;5128266;28;20043;-60
2022/03/29 06:22:38;;;;;;;19.23;9.70;;;;;;;7.54;100.00;97312.78;5112088;28;20490;-63
2022/03/29 06:25:06;;;;;;;26.27;10.77;;;;;;;7.60;100.00;97307.72;5116654;28;20421;-62
2022/03/29 06:27:32;;;;;;;22.33;9.77;;;;;;;7.54;100.00;97301.88;5131097;28;20528;-61
2022/03/29 06:29:59;;;;;;;60.97;21.00;;;;;;;7.54;100.00;97313.56;5132007;28;20047;-62
2022/03/29 06:32:26;;;;;;;39.45;14.68;;;;;;;7.56;100.00;97326.81;5120081;28;20053;-62
2022/03/29 06:34:52;;;;;;;17.23;8.30;;;;;;;7.53;100.00;97336.56;5117512;28;20047;-62
2022/03/29 06:37:18;;;;;;;29.17;12.77;;;;;;;7.60;100.00;97354.06;5131786;28;20457;-63
2022/03/29 06:39:44;;;;;;;38.50;9.98;;;;;;;7.78;100.00;97343.97;5118921;28;20047;-63
2022/03/29 06:42:11;;;;;;;22.75;10.23;;;;;;;7.98;100.00;97308.84;5112045;28;20047;-63
2022/03/29 06:44:38;;;;;;;28.10;9.90;;;;;;;8.22;100.00;97258.09;5113781;28;20052;-62
2022/03/29 06:47:06;;;;;;;19.10;8.55;;;;;;;8.30;100.00;97193.31;5113766;28;20062;-65
2022/03/29 06:49:32;;;;;;;14.20;8.25;;;;;;;8.47;100.00;97135.16;5115277;27;20113;-64
2022/03/29 06:51:58;;;;;;;18.48;8.70;;;;;;;8.83;100.00;97085.72;5119350;28;20159;-62
2022/03/29 06:54:25;;;;;;;19.88;8.52;;;;;;;8.99;100.00;97005.94;5124841;27;20043;-61
2022/03/29 06:56:51;;;;;;;22.45;9.07;;;;;;;9.81;100.00;96942.00;5132048;28;20417;-60
2022/03/29 06:59:17;;;;;;;20.27;7.97;;;;;;;10.84;100.00;96821.66;5131593;28;20524;-59
2022/03/29 07:01:43;;;;;;;16.85;7.60;;;;;;;11.22;100.00;96742.47;5131379;28;20046;-60
2022/03/29 07:04:10;;;;;;;15.05;7.40;;;;;;;11.81;100.00;96728.88;5131549;28;20051;-60
2022/03/29 07:06:36;;;;;;;14.05;7.90;;;;;;;11.65;100.00;96740.66;5131299;28;20051;-60
2022/03/29 07:11:47;;;;;;;26.27;8.60;;;;;;;10.64;100.00;96741.44;5132121;27;20054;-60
2022/03/29 07:14:15;;;;;;;24.42;9.73;;;;;;;10.21;100.00;96731.34;5151405;27;20051;-60
2022/03/29 07:16:43;;;;;;;17.27;8.23;;;;;;;9.86;100.00;96728.06;5124724;27;20089;-60
2022/03/29 07:19:10;;;;;;;29.13;12.05;;;;;;;9.75;100.00;96746.66;5125905;28;20047;-60
2022/03/29 07:21:39;;;;;;;48.83;17.30;;;;;;;10.22;100.00;96747.31;5130516;28;20119;-61
2022/03/29 07:24:05;;;;;;;15.85;7.75;;;;;;;11.73;100.00;96731.06;5130966;28;20047;-61
2022/03/29 07:26:32;;;;;;;33.15;12.50;;;;;;;12.83;100.00;96768.47;5114969;28;20048;-60
2022/03/29 07:28:58;;;;;;;15.23;7.18;;;;;;;13.54;100.00;96830.81;5110664;28;20047;-59
2022/03/29 07:31:24;;;;;;;15.07;7.65;;;;;;;14.39;100.00;96881.56;5119982;28;20055;-58
2022/03/29 07:33:51;;;;;;;22.45;9.43;;;;;;;14.53;100.00;96939.78;5120719;28;20048;-58
2022/03/29 07:36:18;;;;;;;32.22;11.63;;;;;;;14.31;100.00;96958.19;5144893;27;20055;-58
2022/03/29 07:38:45;;;;;;;15.63;7.97;;;;;;;13.65;100.00;96955.88;5140648;27;20103;-58
2022/03/29 07:41:11;;;;;;;13.50;7.13;;;;;;;12.96;100.00;96941.72;5151769;27;20042;-58
2022/03/29 07:43:38;;;;;;;23.40;7.47;;;;;;;12.61;100.00;96911.22;5141303;27;20053;-57
2022/03/29 07:46:04;;;;;;;15.23;7.30;;;;;;;12.73;100.00;96918.00;5125010;28;20051;-58
2022/03/29 07:48:30;;;;;;;15.18;6.78;;;;;;;12.77;100.00;96909.66;5130570;28;20094;-59
2022/03/29 07:50:57;;;;;;;15.55;7.72;;;;;;;13.11;100.00;96915.38;5129640;27;20110;-58
2022/03/29 07:53:25;;;;;;;20.73;8.35;;;;;;;13.03;100.00;96935.25;5151206;27;20138;-58
2022/03/29 07:55:52;;;;;;;12.98;7.30;;;;;;;13.66;100.00;96945.63;5151375;27;20054;-58
2022/03/29 07:58:20;;;;;;;13.50;6.88;;;;;;;13.96;100.00;96969.16;5151392;27;20051;-59
2022/03/29 08:00:50;;;;;;;16.58;6.70;;;;;;;13.88;100.00;96998.09;5150404;27;20062;-57
2022/03/29 08:03:18;;;;;;;22.30;9.85;;;;;;;13.68;100.00;96997.53;5130368;28;20520;-58
2022/03/29 08:05:47;;;;;;;20.40;9.20;;;;;;;13.31;100.00;97003.28;5130790;28;20047;-58
2022/03/29 08:08:15;;;;;;;13.20;7.70;;;;;;;12.65;100.00;96997.13;5130738;28;20096;-58
2022/03/29 08:10:42;;;;;;;14.27;6.47;;;;;;;12.02;100.00;96984.50;5130461;28;20047;-58
2022/03/29 08:13:10;;;;;;;65.95;22.48;;;;;;;11.95;100.00;96956.44;5128629;27;20051;-58
2022/03/29 08:15:37;;;;;;;22.98;10.68;;;;;;;11.54;100.00;96946.72;5118719;27;20498;-59
2022/03/29 08:18:03;;;;;;;14.75;6.80;;;;;;;11.05;100.00;96914.41;5117262;27;20054;-59
2022/03/29 08:20:30;;;;;;;12.50;5.60;;;;;;;10.83;100.00;96883.94;5122772;27;20056;-58
2022/03/29 08:23:00;;;;;;;15.00;5.97;;;;;;;11.35;100.00;96879.72;5110476;28;20051;-59
2022/03/29 08:25:27;;;;;;;14.35;5.95;;;;;;;12.42;100.00;96912.13;5110179;28;20662;-59
2022/03/29 08:27:56;;;;;;;10.27;5.80;;;;;;;13.61;100.00;96979.25;5125592;27;20150;-58
2022/03/29 08:30:24;;;;;;;18.27;5.53;;;;;;;13.74;100.00;97020.56;5150355;27;20424;-58
2022/03/29 08:32:51;;;;;;;10.20;6.03;;;;;;;14.59;100.00;97039.22;5150754;27;20046;-58
2022/03/29 08:35:17;;;;;;;14.88;7.03;;;;;;;15.54;100.00;97073.06;5145917;27;20105;-58
2022/03/29 08:37:43;;;;;;;12.20;5.50;;;;;;;16.21;100.00;97154.00;5118988;28;20048;-60
2022/03/29 08:40:13;;;;;;;20.58;5.90;;;;;;;15.85;100.00;97177.38;5109101;28;20507;-60
2022/03/29 08:42:39;;;;;;;8.80;5.53;;;;;;;15.09;100.00;97188.59;5109901;28;20052;-62
2022/03/29 08:45:08;;;;;;;16.58;5.47;;;;;;;15.34;100.00;97177.53;5109698;28;20108;-60
2022/03/29 08:47:35;;;;;;;12.75;4.50;;;;;;;15.26;100.00;97214.84;5109735;28;20075;-59
2022/03/29 08:50:03;;;;;;;9.60;4.78;;;;;;;14.54;100.00;97214.28;5109863;28;20587;-59
2022/03/29 08:52:31;;;;;;;10.23;4.70;;;;;;;14.20;100.00;97201.06;5109647;28;20570;-59
2022/03/29 08:54:57;;;;;;;11.07;4.63;;;;;;;15.14;100.00;97183.28;5109680;28;20048;-60
2022/03/29 08:57:23;;;;;;;7.72;5.45;;;;;;;16.13;100.00;97194.97;5109001;28;20516;-60
2022/03/29 08:59:50;;;;;;;8.30;4.65;;;;;;;16.45;100.00;97215.91;5109038;28;20138;-59
2022/03/29 09:02:17;;;;;;;7.78;4.30;;;;;;;16.11;97.37;97249.91;5109445;28;20214;-58
2022/03/29 09:04:44;;;;;;;8.80;5.00;;;;;;;15.23;96.55;97246.88;5110596;28;20047;-60
2022/03/29 09:07:11;;;;;;;11.30;4.50;;;;;;;14.50;99.73;97254.16;5121662;28;20048;-64
2022/03/29 09:09:39;;;;;;;11.27;4.43;;;;;;;14.12;100.00;97241.03;5124718;28;20062;-59
2022/03/29 09:12:13;;;;;;;11.40;4.60;;;;;;;13.59;100.00;97221.94;5129839;27;20103;-60
2022/03/29 09:14:54;;;;;;;8.45;3.80;;;;;;;13.29;100.00;97206.56;5124659;27;20135;-60
2022/03/29 09:17:31;;;;;;;7.72;4.30;;;;;;;12.82;100.00;97203.31;5115761;28;20043;-60
2022/03/29 09:19:58;;;;;;;11.63;3.50;;;;;;;12.75;100.00;97198.75;5109287;28;20507;-61
2022/03/29 09:22:36;;;;;;;5.30;2.90;;;;;;;12.67;100.00;97198.16;5108913;28;20048;-61
2022/03/29 09:25:03;;;;;;;7.90;3.45;;;;;;;12.36;100.00;97194.91;5109263;28;20043;-65
2022/03/29 09:27:29;;;;;;;7.25;3.25;;;;;;;11.97;100.00;97182.72;5109312;28;20063;-66
2022/03/29 09:30:06;;;;;;;11.18;3.30;;;;;;;11.81;100.00;97137.91;5109467;28;20134;-67
2022/03/29 09:32:34;;;;;;;8.05;3.67;;;;;;;11.54;100.00;97111.38;5112740;28;20043;-58
2022/03/29 09:35:05;;;;;;;5.68;2.97;;;;;;;11.19;100.00;97145.69;5127724;27;20050;-60
2022/03/29 09:37:34;;;;;;;2.45;1.58;;;;;;;10.80;100.00;97111.50;5136242;27;20406;-61
2022/03/29 09:40:02;;;;;;;4.07;1.90;;;;;;;10.52;100.00;97099.75;5147202;27;20042;-62
2022/03/29 09:42:28;;;;;;;6.72;2.25;;;;;;;10.31;100.00;97102.81;5154198;27;20538;-60
2022/03/29 09:44:57;;;;;;;3.97;2.38;;;;;;;10.14;100.00;97123.75;5154070;27;20050;-59
2022/03/29 09:47:27;;;;;;;5.25;2.45;;;;;;;9.85;100.00;97117.88;5153714;27;20042;-61
2022/03/29 09:49:56;;;;;;;7.85;3.35;;;;;;;9.58;100.00;97093.16;5153624;27;20113;-60
2022/03/29 09:52:25;;;;;;;7.53;2.63;;;;;;;9.49;100.00;97079.19;5131614;27;20055;-61
2022/03/29 09:55:16;;;;;;;8.32;3.75;;;;;;;9.52;100.00;97072.91;5122901;27;20080;-62
2022/03/29 09:57:46;;;;;;;5.20;2.78;;;;;;;9.67;100.00;97074.31;5120986;28;20052;-60
2022/03/29 10:00:15;;;;;;;7.28;2.90;;;;;;;9.77;100.00;97108.19;5112312;28;20051;-59
2022/03/29 10:02:45;;;;;;;10.68;3.17;;;;;;;10.09;100.00;97118.72;5112401;28;20093;-60
2022/03/29 10:05:12;;;;;;;15.32;4.43;;;;;;;10.29;100.00;97118.88;5111821;28;20058;-61
2022/03/29 10:07:43;;;;;;;3.60;1.98;;;;;;;10.44;100.00;97163.31;5112409;28;20051;-60
2022/03/29 10:10:11;;;;;;;26.02;3.70;;;;;;;10.35;100.00;97189.22;5130304;27;20047;-54
2022/03/29 10:12:37;;;;;;;5.30;2.22;;;;;;;10.37;100.00;97166.91;5153486;27;20106;-50
2022/03/29 10:15:05;;;;;;;5.95;2.35;;;;;;;10.52;100.00;97183.91;5153168;27;20485;-55
2022/03/29 10:17:32;;;;;;;7.32;2.42;;;;;;;11.04;100.00;97183.56;5138969;27;20051;-52
2022/03/29 10:19:59;;;;;;;3.67;2.17;;;;;;;11.29;100.00;97221.53;5131724;28;20051;-53
2022/03/29 10:22:26;;;;;;;6.53;3.22;;;;;;;11.27;100.00;97147.91;5132514;28;20051;-52
2022/03/29 10:24:53;;;;;;;8.60;3.05;;;;;;;10.81;100.00;97089.13;5129345;28;20051;-53
2022/03/29 10:27:21;;;;;;;8.60;2.63;;;;;;;10.28;100.00;97055.13;5130430;27;20078;-56
2022/03/29 10:29:48;;;;;;;75.15;6.78;;;;;;;9.84;100.00;97042.44;5131286;27;20047;-53
2022/03/29 10:32:28;;;;;;;24.20;4.45;;;;;;;9.58;100.00;97008.38;5131835;27;20093;-55
2022/03/29 10:35:07;;;;;;;6.78;2.88;;;;;;;9.33;100.00;97000.47;5152887;27;20051;-60
2022/03/29 10:37:56;;;;;;;9.30;3.60;;;;;;;9.39;100.00;96985.91;5153110;27;20076;-55
2022/03/29 10:40:37;;;;;;;7.45;2.85;;;;;;;9.53;100.00;97012.34;5152762;27;20043;-55
2022/03/29 10:43:34;;;;;;;6.05;2.90;;;;;;;9.79;100.00;97008.06;5117630;27;20055;-56
2022/03/29 10:46:00;;;;;;;13.32;2.58;;;;;;;9.62;100.00;97044.66;5048873;28;20057;-54
2022/03/29 10:48:27;;;;;;;8.00;2.45;;;;;;;9.59;100.00;97070.84;5096656;28;20058;-54
2022/03/29 10:51:00;;;;;;;7.00;2.72;;;;;;;9.73;100.00;97127.41;5111326;27;20075;-54
2022/03/29 10:53:30;;;;;;;13.98;2.65;;;;;;;9.94;100.00;97139.28;5120489;27;20051;-58
2022/03/29 10:56:15;;;;;;;3.78;2.33;;;;;;;10.23;100.00;97151.41;5122814;27;20954;-53
2022/03/29 10:59:20;;;;;;;6.10;2.38;;;;;;;10.27;100.00;97181.53;5131451;28;20042;-55
2022/03/29 11:02:06;;;;;;;3.92;2.28;;;;;;;10.37;100.00;97177.88;5112817;28;20073;-61
2022/03/29 11:04:32;;;;;;;5.38;2.45;;;;;;;10.36;100.00;97154.38;5129661;28;20111;-51
2022/03/29 11:07:19;;;;;;;4.75;2.33;;;;;;;10.33;100.00;97177.91;5131527;27;20047;-55
2022/03/29 11:09:47;;;;;;;5.68;2.38;;;;;;;10.32;100.00;97168.13;5124493;27;20047;-56
2022/03/29 11:12:39;;;;;;;3.40;2.15;;;;;;;10.41;100.00;97177.81;5111811;28;20411;-58
2022/03/29 11:15:45;;;;;;;4.90;1.55;;;;;;;10.35;100.00;97227.56;5130600;28;20054;-57
2022/03/29 11:18:37;;;;;;;2.47;1.60;;;;;;;10.18;100.00;97241.44;5118167;27;20107;-55
2022/03/29 11:21:04;;;;;;;4.47;1.45;;;;;;;10.13;100.00;97256.38;5131477;28;20493;-54
2022/03/29 11:23:32;;;;;;;4.13;1.50;;;;;;;10.01;100.00;97260.41;5131275;28;20091;-54
2022/03/29 11:26:04;;;;;;;7.57;2.10;;;;;;;10.04;100.00;97250.59;5128177;27;20073;-59
2022/03/29 11:28:31;;;;;;;3.67;1.60;;;;;;;9.98;100.00;97258.47;5131467;28;20107;-52
2022/03/29 11:30:58;;;;;;;5.88;1.90;;;;;;;10.08;100.00;97246.63;5129504;28;20054;-58
2022/03/29 11:33:31;;;;;;;2.65;1.40;;;;;;;10.06;100.00;97256.44;5117974;27;20067;-59
2022/03/29 11:35:57;;;;;;;1.92;1.60;;;;;;;10.10;100.00;97262.66;5122754;27;20485;-60
2022/03/29 11:38:23;;;;;;;5.22;2.13;;;;;;;10.12;100.00;97273.97;5130796;28;20050;-59
2022/03/29 11:40:50;;;;;;;5.25;1.70;;;;;;;10.13;100.00;97273.56;5129687;28;20057;-57